sensor_id;sensor_type;location;lat;lon;timestamp;P1;durP1;ratioP1;P2;durP2;ratioP2
48871;SDS011;36154;51.674;7.824;2023-05-10T00:01:46;0.40;;;0.40;;
48871;SDS011;36154;51.674;7.824;2023-05-10T00:04:11;0.40;;;0.40;;
48871;SDS011;36154;51.674;7.824;2023-05-10T00:06:37;0.40;;;0.40;;
48871;SDS011;36154;51.674;7.824;2023-05-10T00:09:02;0.50;;;0.50;;
48871;SDS011;36154;51.674;7.824;2023-05-10T00:11:28;0.40;;;0.40;;
48871;SDS011;36154;51.674;7.824;2023-05-10T00:13:53;0.40;;;0.40;;
48871;SDS011;36154;51.674;7.824;2023-05-10T00:16:19;0.30;;;0.30;;
48871;SDS011;36154;51.674;7.824;2023-05-10T00:18:44;0.45;;;0.40;;
48871;SDS011;36154;51.674;7.824;2023-05-10T00:21:09;1.25;;;0.50;;
48871;SDS011;36154;51.674;7.824;2023-05-10T00:23:35;0.40;;;0.40;;
48871;SDS011;36154;51.674;7.824;2023-05-10T00:26:00;0.40;;;0.40;;
48871;SDS011;36154;51.674;7.824;2023-05-10T00:28:26;0.40;;;0.40;;
48871;SDS011;36154;51.674;7.824;2023-05-10T00:30:52;0.40;;;0.40;;
48871;SDS011;36154;51.674;7.824;2023-05-10T00:33:17;0.40;;;0.40;;
48871;SDS011;36154;51.674;7.824;2023-05-10T00:35:43;0.75;;;0.47;;
48871;SDS011;36154;51.674;7.824;2023-05-10T00:38:08;0.50;;;0.50;;
48871;SDS011;36154;51.674;7.824;2023-05-10T00:40:35;0.43;;;0.43;;
48871;SDS011;36154;51.674;7.824;2023-05-10T00:43:00;0.60;;;0.60;;
48871;SDS011;36154;51.674;7.824;2023-05-10T00:45:26;0.30;;;0.30;;
48871;SDS011;36154;51.674;7.824;2023-05-10T00:47:52;0.35;;;0.35;;
48871;SDS011;36154;51.674;7.824;2023-05-10T00:50:20;0.40;;;0.40;;
48871;SDS011;36154;51.674;7.824;2023-05-10T00:52:46;0.38;;;0.38;;
48871;SDS011;36154;51.674;7.824;2023-05-10T00:55:11;0.40;;;0.40;;
48871;SDS011;36154;51.674;7.824;2023-05-10T00:57:37;0.70;;;0.60;;
48871;SDS011;36154;51.674;7.824;2023-05-10T01:00:03;0.55;;;0.55;;
48871;SDS011;36154;51.674;7.824;2023-05-10T01:02:28;0.30;;;0.30;;
48871;SDS011;36154;51.674;7.824;2023-05-10T01:04:53;0.73;;;0.43;;
48871;SDS011;36154;51.674;7.824;2023-05-10T01:07:19;0.28;;;0.28;;
48871;SDS011;36154;51.674;7.824;2023-05-10T01:09:45;0.60;;;0.30;;
48871;SDS011;36154;51.674;7.824;2023-05-10T01:12:10;0.20;;;0.20;;
48871;SDS011;36154;51.674;7.824;2023-05-10T01:14:36;0.30;;;0.30;;
48871;SDS011;36154;51.674;7.824;2023-05-10T01:17:02;0.40;;;0.40;;
48871;SDS011;36154;51.674;7.824;2023-05-10T01:19:29;0.40;;;0.40;;
48871;SDS011;36154;51.674;7.824;2023-05-10T01:35:43;0.28;;;0.28;;
48871;SDS011;36154;51.674;7.824;2023-05-10T01:38:22;0.20;;;0.20;;
48871;SDS011;36154;51.674;7.824;2023-05-10T01:41:32;0.40;;;0.40;;
48871;SDS011;36154;51.674;7.824;2023-05-10T01:44:02;0.30;;;0.30;;
48871;SDS011;36154;51.674;7.824;2023-05-10T01:46:37;0.40;;;0.40;;
48871;SDS011;36154;51.674;7.824;2023-05-10T01:49:11;0.25;;;0.25;;
48871;SDS011;36154;51.674;7.824;2023-05-10T01:51:49;0.30;;;0.30;;
48871;SDS011;36154;51.674;7.824;2023-05-10T01:54:17;0.38;;;0.32;;
48871;SDS011;36154;51.674;7.824;2023-05-10T01:56:45;0.30;;;0.30;;
48871;SDS011;36154;51.674;7.824;2023-05-10T01:59:15;0.30;;;0.30;;
48871;SDS011;36154;51.674;7.824;2023-05-10T02:01:43;0.32;;;0.32;;
48871;SDS011;36154;51.674;7.824;2023-05-10T02:04:10;0.30;;;0.30;;
48871;SDS011;36154;51.674;7.824;2023-05-10T02:06:39;0.30;;;0.30;;
48871;SDS011;36154;51.674;7.824;2023-05-10T02:09:07;0.30;;;0.30;;
48871;SDS011;36154;51.674;7.824;2023-05-10T02:11:36;0.20;;;0.20;;
48871;SDS011;36154;51.674;7.824;2023-05-10T02:14:03;0.20;;;0.20;;
48871;SDS011;36154;51.674;7.824;2023-05-10T02:16:32;0.30;;;0.30;;
48871;SDS011;36154;51.674;7.824;2023-05-10T02:19:00;0.20;;;0.20;;
48871;SDS011;36154;51.674;7.824;2023-05-10T02:21:27;0.22;;;0.22;;
48871;SDS011;36154;51.674;7.824;2023-05-10T02:23:53;0.20;;;0.20;;
48871;SDS011;36154;51.674;7.824;2023-05-10T02:26:20;0.30;;;0.30;;
48871;SDS011;36154;51.674;7.824;2023-05-10T02:28:48;0.30;;;0.30;;
48871;SDS011;36154;51.674;7.824;2023-05-10T02:31:15;0.47;;;0.40;;
48871;SDS011;36154;51.674;7.824;2023-05-10T02:33:41;0.30;;;0.30;;
48871;SDS011;36154;51.674;7.824;2023-05-10T02:36:09;0.22;;;0.22;;
48871;SDS011;36154;51.674;7.824;2023-05-10T02:38:35;0.20;;;0.20;;
48871;SDS011;36154;51.674;7.824;2023-05-10T02:41:01;0.20;;;0.20;;
48871;SDS011;36154;51.674;7.824;2023-05-10T02:43:31;0.20;;;0.20;;
48871;SDS011;36154;51.674;7.824;2023-05-10T02:45:58;0.20;;;0.20;;
48871;SDS011;36154;51.674;7.824;2023-05-10T02:48:23;0.20;;;0.20;;
48871;SDS011;36154;51.674;7.824;2023-05-10T02:50:48;0.15;;;0.15;;
48871;SDS011;36154;51.674;7.824;2023-05-10T02:53:23;0.10;;;0.10;;
48871;SDS011;36154;51.674;7.824;2023-05-10T02:55:57;0.25;;;0.25;;
48871;SDS011;36154;51.674;7.824;2023-05-10T02:58:25;0.15;;;0.15;;
48871;SDS011;36154;51.674;7.824;2023-05-10T03:00:51;0.20;;;0.20;;
48871;SDS011;36154;51.674;7.824;2023-05-10T03:03:17;0.20;;;0.20;;
48871;SDS011;36154;51.674;7.824;2023-05-10T03:05:42;0.13;;;0.13;;
48871;SDS011;36154;51.674;7.824;2023-05-10T03:08:07;0.25;;;0.25;;
48871;SDS011;36154;51.674;7.824;2023-05-10T03:10:33;0.30;;;0.30;;
48871;SDS011;36154;51.674;7.824;2023-05-10T03:13:07;0.20;;;0.20;;
48871;SDS011;36154;51.674;7.824;2023-05-10T03:18:48;0.20;;;0.20;;
48871;SDS011;36154;51.674;7.824;2023-05-10T03:21:19;0.20;;;0.20;;
48871;SDS011;36154;51.674;7.824;2023-05-10T03:23:58;0.20;;;0.20;;
48871;SDS011;36154;51.674;7.824;2023-05-10T03:26:27;0.10;;;0.10;;
48871;SDS011;36154;51.674;7.824;2023-05-10T03:28:54;0.15;;;0.15;;
48871;SDS011;36154;51.674;7.824;2023-05-10T03:31:20;0.20;;;0.20;;
48871;SDS011;36154;51.674;7.824;2023-05-10T03:33:49;0.17;;;0.17;;
48871;SDS011;36154;51.674;7.824;2023-05-10T03:36:15;0.20;;;0.20;;
48871;SDS011;36154;51.674;7.824;2023-05-10T03:38:41;0.10;;;0.10;;
48871;SDS011;36154;51.674;7.824;2023-05-10T03:41:06;0.20;;;0.20;;
48871;SDS011;36154;51.674;7.824;2023-05-10T03:43:31;0.10;;;0.10;;
48871;SDS011;36154;51.674;7.824;2023-05-10T03:45:57;0.13;;;0.13;;
48871;SDS011;36154;51.674;7.824;2023-05-10T03:48:22;0.15;;;0.15;;
48871;SDS011;36154;51.674;7.824;2023-05-10T03:50:47;0.15;;;0.15;;
48871;SDS011;36154;51.674;7.824;2023-05-10T03:53:14;0.10;;;0.10;;
48871;SDS011;36154;51.674;7.824;2023-05-10T03:55:39;0.20;;;0.20;;
48871;SDS011;36154;51.674;7.824;2023-05-10T03:58:05;0.28;;;0.20;;
48871;SDS011;36154;51.674;7.824;2023-05-10T04:00:30;0.10;;;0.10;;
48871;SDS011;36154;51.674;7.824;2023-05-10T04:02:55;0.20;;;0.20;;
48871;SDS011;36154;51.674;7.824;2023-05-10T04:05:21;0.17;;;0.17;;
48871;SDS011;36154;51.674;7.824;2023-05-10T04:07:46;0.10;;;0.10;;
48871;SDS011;36154;51.674;7.824;2023-05-10T04:10:12;0.10;;;0.10;;
48871;SDS011;36154;51.674;7.824;2023-05-10T04:12:37;0.10;;;0.10;;
48871;SDS011;36154;51.674;7.824;2023-05-10T04:15:02;0.13;;;0.13;;
48871;SDS011;36154;51.674;7.824;2023-05-10T04:17:28;0.10;;;0.10;;
48871;SDS011;36154;51.674;7.824;2023-05-10T04:19:53;0.20;;;0.20;;
48871;SDS011;36154;51.674;7.824;2023-05-10T04:22:19;0.10;;;0.10;;
48871;SDS011;36154;51.674;7.824;2023-05-10T04:24:45;0.15;;;0.10;;
48871;SDS011;36154;51.674;7.824;2023-05-10T04:27:10;0.20;;;0.20;;
48871;SDS011;36154;51.674;7.824;2023-05-10T04:29:36;1.17;;;0.90;;
48871;SDS011;36154;51.674;7.824;2023-05-10T04:32:01;1.40;;;1.30;;
48871;SDS011;36154;51.674;7.824;2023-05-10T04:34:27;1.05;;;1.00;;
48871;SDS011;36154;51.674;7.824;2023-05-10T04:36:52;0.77;;;0.77;;
48871;SDS011;36154;51.674;7.824;2023-05-10T04:39:17;2.78;;;0.52;;
48871;SDS011;36154;51.674;7.824;2023-05-10T04:41:43;0.63;;;0.55;;
48871;SDS011;36154;51.674;7.824;2023-05-10T04:44:08;1.23;;;0.50;;
48871;SDS011;36154;51.674;7.824;2023-05-10T04:46:33;0.32;;;0.32;;
48871;SDS011;36154;51.674;7.824;2023-05-10T04:48:58;1.30;;;0.50;;
48871;SDS011;36154;51.674;7.824;2023-05-10T04:51:24;1.05;;;0.50;;
48871;SDS011;36154;51.674;7.824;2023-05-10T04:53:49;0.73;;;0.47;;
48871;SDS011;36154;51.674;7.824;2023-05-10T04:56:14;3.35;;;0.77;;
48871;SDS011;36154;51.674;7.824;2023-05-10T04:58:40;1.02;;;0.63;;
48871;SDS011;36154;51.674;7.824;2023-05-10T05:01:06;15.07;;;3.90;;
48871;SDS011;36154;51.674;7.824;2023-05-10T05:03:33;27.65;;;5.15;;
48871;SDS011;36154;51.674;7.824;2023-05-10T05:05:58;19.45;;;4.18;;
48871;SDS011;36154;51.674;7.824;2023-05-10T05:08:26;18.55;;;4.22;;
48871;SDS011;36154;51.674;7.824;2023-05-10T05:10:51;20.45;;;4.25;;
48871;SDS011;36154;51.674;7.824;2023-05-10T05:13:17;20.42;;;4.03;;
48871;SDS011;36154;51.674;7.824;2023-05-10T05:15:42;17.63;;;4.20;;
48871;SDS011;36154;51.674;7.824;2023-05-10T05:18:08;14.27;;;3.63;;
48871;SDS011;36154;51.674;7.824;2023-05-10T05:20:33;10.65;;;2.97;;
48871;SDS011;36154;51.674;7.824;2023-05-10T05:23:01;13.05;;;3.65;;
48871;SDS011;36154;51.674;7.824;2023-05-10T05:25:26;13.35;;;3.65;;
48871;SDS011;36154;51.674;7.824;2023-05-10T05:27:52;9.80;;;2.90;;
48871;SDS011;36154;51.674;7.824;2023-05-10T05:30:17;17.48;;;3.30;;
48871;SDS011;36154;51.674;7.824;2023-05-10T05:32:42;12.18;;;3.00;;
48871;SDS011;36154;51.674;7.824;2023-05-10T05:35:08;12.57;;;2.95;;
48871;SDS011;36154;51.674;7.824;2023-05-10T05:37:33;10.40;;;3.35;;
48871;SDS011;36154;51.674;7.824;2023-05-10T05:39:58;8.25;;;2.63;;
48871;SDS011;36154;51.674;7.824;2023-05-10T05:42:26;6.97;;;2.83;;
48871;SDS011;36154;51.674;7.824;2023-05-10T05:44:51;7.53;;;2.60;;
48871;SDS011;36154;51.674;7.824;2023-05-10T05:47:16;6.63;;;2.75;;
48871;SDS011;36154;51.674;7.824;2023-05-10T05:49:42;11.10;;;3.20;;
48871;SDS011;36154;51.674;7.824;2023-05-10T05:52:10;10.45;;;2.67;;
48871;SDS011;36154;51.674;7.824;2023-05-10T05:54:35;12.07;;;2.60;;
48871;SDS011;36154;51.674;7.824;2023-05-10T05:57:01;8.07;;;2.22;;
48871;SDS011;36154;51.674;7.824;2023-05-10T05:59:26;5.57;;;2.33;;
48871;SDS011;36154;51.674;7.824;2023-05-10T06:01:51;6.10;;;2.55;;
48871;SDS011;36154;51.674;7.824;2023-05-10T06:04:20;5.25;;;2.25;;
48871;SDS011;36154;51.674;7.824;2023-05-10T06:06:45;8.77;;;2.50;;
48871;SDS011;36154;51.674;7.824;2023-05-10T06:09:11;4.80;;;2.38;;
48871;SDS011;36154;51.674;7.824;2023-05-10T06:11:36;6.10;;;1.98;;
48871;SDS011;36154;51.674;7.824;2023-05-10T06:14:02;6.40;;;2.53;;
48871;SDS011;36154;51.674;7.824;2023-05-10T06:16:32;4.60;;;1.95;;
48871;SDS011;36154;51.674;7.824;2023-05-10T06:18:58;4.75;;;1.60;;
48871;SDS011;36154;51.674;7.824;2023-05-10T06:21:23;4.50;;;1.95;;
48871;SDS011;36154;51.674;7.824;2023-05-10T06:23:49;3.60;;;1.65;;
48871;SDS011;36154;51.674;7.824;2023-05-10T06:26:14;5.60;;;2.28;;
48871;SDS011;36154;51.674;7.824;2023-05-10T06:28:39;5.03;;;1.63;;
48871;SDS011;36154;51.674;7.824;2023-05-10T06:31:05;5.45;;;1.77;;
48871;SDS011;36154;51.674;7.824;2023-05-10T06:33:31;5.07;;;2.30;;
48871;SDS011;36154;51.674;7.824;2023-05-10T06:35:56;4.60;;;1.88;;
48871;SDS011;36154;51.674;7.824;2023-05-10T06:38:22;3.00;;;1.67;;
48871;SDS011;36154;51.674;7.824;2023-05-10T06:40:47;6.68;;;2.17;;
48871;SDS011;36154;51.674;7.824;2023-05-10T06:43:12;2.58;;;1.73;;
48871;SDS011;36154;51.674;7.824;2023-05-10T06:45:38;5.07;;;2.08;;
48871;SDS011;36154;51.674;7.824;2023-05-10T06:48:03;3.17;;;1.63;;
48871;SDS011;36154;51.674;7.824;2023-05-10T06:50:28;2.55;;;1.40;;
48871;SDS011;36154;51.674;7.824;2023-05-10T06:52:54;3.22;;;1.60;;
48871;SDS011;36154;51.674;7.824;2023-05-10T06:55:21;2.80;;;1.50;;
48871;SDS011;36154;51.674;7.824;2023-05-10T06:57:47;3.15;;;1.42;;
48871;SDS011;36154;51.674;7.824;2023-05-10T07:00:13;4.10;;;1.48;;
48871;SDS011;36154;51.674;7.824;2023-05-10T07:02:38;2.45;;;1.45;;
48871;SDS011;36154;51.674;7.824;2023-05-10T07:05:04;3.50;;;1.70;;
48871;SDS011;36154;51.674;7.824;2023-05-10T07:07:29;4.28;;;1.92;;
48871;SDS011;36154;51.674;7.824;2023-05-10T07:09:55;3.83;;;1.67;;
48871;SDS011;36154;51.674;7.824;2023-05-10T07:12:22;2.40;;;1.38;;
48871;SDS011;36154;51.674;7.824;2023-05-10T07:14:47;3.25;;;1.58;;
48871;SDS011;36154;51.674;7.824;2023-05-10T07:17:12;4.00;;;1.83;;
48871;SDS011;36154;51.674;7.824;2023-05-10T07:19:38;3.05;;;1.75;;
48871;SDS011;36154;51.674;7.824;2023-05-10T07:22:03;3.05;;;1.58;;
48871;SDS011;36154;51.674;7.824;2023-05-10T07:24:28;1.55;;;1.45;;
48871;SDS011;36154;51.674;7.824;2023-05-10T07:26:54;1.67;;;1.42;;
48871;SDS011;36154;51.674;7.824;2023-05-10T07:29:19;4.20;;;1.67;;
48871;SDS011;36154;51.674;7.824;2023-05-10T07:31:44;2.47;;;1.60;;
48871;SDS011;36154;51.674;7.824;2023-05-10T07:34:10;2.03;;;1.77;;
48871;SDS011;36154;51.674;7.824;2023-05-10T07:36:35;3.55;;;1.55;;
48871;SDS011;36154;51.674;7.824;2023-05-10T07:39:00;3.58;;;1.75;;
48871;SDS011;36154;51.674;7.824;2023-05-10T07:41:26;2.97;;;1.50;;
48871;SDS011;36154;51.674;7.824;2023-05-10T07:43:52;2.90;;;1.70;;
48871;SDS011;36154;51.674;7.824;2023-05-10T07:46:17;3.25;;;1.60;;
48871;SDS011;36154;51.674;7.824;2023-05-10T07:48:44;3.30;;;1.58;;
48871;SDS011;36154;51.674;7.824;2023-05-10T07:51:09;4.40;;;1.60;;
48871;SDS011;36154;51.674;7.824;2023-05-10T07:53:35;3.47;;;1.65;;
48871;SDS011;36154;51.674;7.824;2023-05-10T07:56:19;2.15;;;1.83;;
48871;SDS011;36154;51.674;7.824;2023-05-10T07:58:45;5.03;;;2.63;;
48871;SDS011;36154;51.674;7.824;2023-05-10T08:01:11;4.28;;;1.70;;
48871;SDS011;36154;51.674;7.824;2023-05-10T08:03:36;3.75;;;2.08;;
48871;SDS011;36154;51.674;7.824;2023-05-10T08:06:01;5.38;;;2.42;;
48871;SDS011;36154;51.674;7.824;2023-05-10T08:08:27;2.65;;;1.85;;
48871;SDS011;36154;51.674;7.824;2023-05-10T08:10:52;3.22;;;2.00;;
48871;SDS011;36154;51.674;7.824;2023-05-10T08:13:17;3.03;;;1.75;;
48871;SDS011;36154;51.674;7.824;2023-05-10T08:15:43;3.78;;;2.25;;
48871;SDS011;36154;51.674;7.824;2023-05-10T08:18:08;4.00;;;2.20;;
48871;SDS011;36154;51.674;7.824;2023-05-10T08:20:33;3.45;;;1.98;;
48871;SDS011;36154;51.674;7.824;2023-05-10T08:22:58;3.30;;;2.10;;
48871;SDS011;36154;51.674;7.824;2023-05-10T08:25:24;4.32;;;2.13;;
48871;SDS011;36154;51.674;7.824;2023-05-10T08:27:49;2.60;;;1.85;;
48871;SDS011;36154;51.674;7.824;2023-05-10T08:30:15;3.88;;;1.90;;
48871;SDS011;36154;51.674;7.824;2023-05-10T08:32:40;4.82;;;2.22;;
48871;SDS011;36154;51.674;7.824;2023-05-10T08:35:06;2.22;;;2.03;;
48871;SDS011;36154;51.674;7.824;2023-05-10T08:37:31;3.30;;;2.00;;
48871;SDS011;36154;51.674;7.824;2023-05-10T08:39:57;2.97;;;1.80;;
48871;SDS011;36154;51.674;7.824;2023-05-10T08:42:23;3.38;;;2.10;;
48871;SDS011;36154;51.674;7.824;2023-05-10T08:44:52;2.85;;;1.98;;
48871;SDS011;36154;51.674;7.824;2023-05-10T08:47:19;3.25;;;2.05;;
48871;SDS011;36154;51.674;7.824;2023-05-10T08:49:45;2.67;;;2.20;;
48871;SDS011;36154;51.674;7.824;2023-05-10T08:52:13;2.30;;;2.10;;
48871;SDS011;36154;51.674;7.824;2023-05-10T08:54:41;3.60;;;2.30;;
48871;SDS011;36154;51.674;7.824;2023-05-10T08:57:07;2.95;;;2.05;;
48871;SDS011;36154;51.674;7.824;2023-05-10T08:59:32;5.95;;;2.70;;
48871;SDS011;36154;51.674;7.824;2023-05-10T09:01:58;2.10;;;2.00;;
48871;SDS011;36154;51.674;7.824;2023-05-10T09:04:24;3.13;;;2.05;;
48871;SDS011;36154;51.674;7.824;2023-05-10T09:06:50;3.13;;;2.15;;
48871;SDS011;36154;51.674;7.824;2023-05-10T09:09:16;2.50;;;2.08;;
48871;SDS011;36154;51.674;7.824;2023-05-10T09:11:42;3.00;;;2.30;;
48871;SDS011;36154;51.674;7.824;2023-05-10T09:14:08;2.78;;;2.00;;
48871;SDS011;36154;51.674;7.824;2023-05-10T09:16:34;2.28;;;2.08;;
48871;SDS011;36154;51.674;7.824;2023-05-10T09:18:59;2.78;;;2.20;;
48871;SDS011;36154;51.674;7.824;2023-05-10T09:21:25;2.33;;;2.13;;
48871;SDS011;36154;51.674;7.824;2023-05-10T09:23:50;4.40;;;2.28;;
48871;SDS011;36154;51.674;7.824;2023-05-10T09:26:21;2.10;;;1.90;;
48871;SDS011;36154;51.674;7.824;2023-05-10T09:28:54;2.28;;;2.08;;
48871;SDS011;36154;51.674;7.824;2023-05-10T09:31:21;2.28;;;2.08;;
48871;SDS011;36154;51.674;7.824;2023-05-10T09:33:48;2.53;;;1.80;;
48871;SDS011;36154;51.674;7.824;2023-05-10T09:36:13;2.35;;;2.10;;
48871;SDS011;36154;51.674;7.824;2023-05-10T09:38:46;2.15;;;1.98;;
48871;SDS011;36154;51.674;7.824;2023-05-10T09:41:17;2.45;;;1.80;;
48871;SDS011;36154;51.674;7.824;2023-05-10T09:43:47;2.97;;;2.22;;
48871;SDS011;36154;51.674;7.824;2023-05-10T09:46:14;2.15;;;1.95;;
48871;SDS011;36154;51.674;7.824;2023-05-10T09:48:45;3.00;;;2.70;;
48871;SDS011;36154;51.674;7.824;2023-05-10T09:51:19;2.40;;;2.20;;
48871;SDS011;36154;51.674;7.824;2023-05-10T09:53:45;2.10;;;2.00;;
48871;SDS011;36154;51.674;7.824;2023-05-10T09:56:11;2.15;;;2.05;;
48871;SDS011;36154;51.674;7.824;2023-05-10T09:58:36;2.80;;;2.60;;
48871;SDS011;36154;51.674;7.824;2023-05-10T10:01:05;2.80;;;2.08;;
48871;SDS011;36154;51.674;7.824;2023-05-10T10:03:40;3.00;;;1.90;;
48871;SDS011;36154;51.674;7.824;2023-05-10T10:06:07;2.40;;;2.08;;
48871;SDS011;36154;51.674;7.824;2023-05-10T10:08:33;2.20;;;2.03;;
48871;SDS011;36154;51.674;7.824;2023-05-10T10:10:58;2.50;;;2.20;;
48871;SDS011;36154;51.674;7.824;2023-05-10T10:13:24;2.00;;;1.90;;
48871;SDS011;36154;51.674;7.824;2023-05-10T10:15:50;3.08;;;2.78;;
48871;SDS011;36154;51.674;7.824;2023-05-10T10:18:17;2.30;;;2.10;;
48871;SDS011;36154;51.674;7.824;2023-05-10T10:20:42;2.40;;;2.20;;
48871;SDS011;36154;51.674;7.824;2023-05-10T10:23:08;2.30;;;2.10;;
48871;SDS011;36154;51.674;7.824;2023-05-10T10:25:33;2.20;;;2.00;;
48871;SDS011;36154;51.674;7.824;2023-05-10T10:28:02;2.97;;;2.78;;
48871;SDS011;36154;51.674;7.824;2023-05-10T10:30:49;3.15;;;2.65;;
48871;SDS011;36154;51.674;7.824;2023-05-10T10:33:39;3.33;;;2.72;;
48871;SDS011;36154;51.674;7.824;2023-05-10T10:36:20;2.55;;;2.45;;
48871;SDS011;36154;51.674;7.824;2023-05-10T10:41:26;2.47;;;2.27;;
48871;SDS011;36154;51.674;7.824;2023-05-10T10:49:49;2.55;;;2.45;;
48871;SDS011;36154;51.674;7.824;2023-05-10T11:02:58;2.83;;;2.63;;
48871;SDS011;36154;51.674;7.824;2023-05-10T11:07:56;2.70;;;2.50;;
48871;SDS011;36154;51.674;7.824;2023-05-10T11:10:23;2.92;;;2.42;;
48871;SDS011;36154;51.674;7.824;2023-05-10T11:13:02;3.05;;;2.85;;
48871;SDS011;36154;51.674;7.824;2023-05-10T11:15:30;2.67;;;2.47;;
48871;SDS011;36154;51.674;7.824;2023-05-10T11:20:42;3.13;;;2.42;;
48871;SDS011;36154;51.674;7.824;2023-05-10T11:23:11;2.80;;;2.60;;
48871;SDS011;36154;51.674;7.824;2023-05-10T11:25:41;2.47;;;2.33;;
48871;SDS011;36154;51.674;7.824;2023-05-10T11:28:10;4.25;;;2.92;;
48871;SDS011;36154;51.674;7.824;2023-05-10T11:30:36;3.00;;;2.67;;
48871;SDS011;36154;51.674;7.824;2023-05-10T11:33:02;2.72;;;2.53;;
48871;SDS011;36154;51.674;7.824;2023-05-10T11:35:28;3.47;;;2.78;;
48871;SDS011;36154;51.674;7.824;2023-05-10T11:37:53;3.80;;;2.80;;
48871;SDS011;36154;51.674;7.824;2023-05-10T11:40:18;3.45;;;2.53;;
48871;SDS011;36154;51.674;7.824;2023-05-10T11:42:46;4.75;;;2.25;;
48871;SDS011;36154;51.674;7.824;2023-05-10T11:45:11;1.95;;;1.85;;
48871;SDS011;36154;51.674;7.824;2023-05-10T11:47:36;2.20;;;1.98;;
48871;SDS011;36154;51.674;7.824;2023-05-10T11:50:02;1.58;;;1.48;;
48871;SDS011;36154;51.674;7.824;2023-05-10T11:52:27;1.17;;;1.13;;
48871;SDS011;36154;51.674;7.824;2023-05-10T11:54:54;1.33;;;1.33;;
48871;SDS011;36154;51.674;7.824;2023-05-10T11:57:20;1.30;;;1.30;;
48871;SDS011;36154;51.674;7.824;2023-05-10T11:59:46;1.20;;;1.10;;
48871;SDS011;36154;51.674;7.824;2023-05-10T12:02:15;10.55;;;1.10;;
48871;SDS011;36154;51.674;7.824;2023-05-10T12:04:40;0.95;;;0.95;;
48871;SDS011;36154;51.674;7.824;2023-05-10T12:07:06;2.38;;;1.30;;
48871;SDS011;36154;51.674;7.824;2023-05-10T12:09:31;0.90;;;0.90;;
48871;SDS011;36154;51.674;7.824;2023-05-10T12:11:57;0.85;;;0.85;;
48871;SDS011;36154;51.674;7.824;2023-05-10T12:14:22;0.90;;;0.90;;
48871;SDS011;36154;51.674;7.824;2023-05-10T12:16:50;0.93;;;0.90;;
48871;SDS011;36154;51.674;7.824;2023-05-10T12:19:19;1.20;;;0.70;;
48871;SDS011;36154;51.674;7.824;2023-05-10T12:21:47;0.73;;;0.73;;
48871;SDS011;36154;51.674;7.824;2023-05-10T12:24:13;0.70;;;0.70;;
48871;SDS011;36154;51.674;7.824;2023-05-10T12:26:41;0.80;;;0.80;;
48871;SDS011;36154;51.674;7.824;2023-05-10T12:29:13;1.05;;;0.80;;
48871;SDS011;36154;51.674;7.824;2023-05-10T12:31:54;0.65;;;0.65;;
48871;SDS011;36154;51.674;7.824;2023-05-10T12:36:55;12.38;;;10.52;;
48871;SDS011;36154;51.674;7.824;2023-05-10T12:39:21;21.90;;;14.75;;
48871;SDS011;36154;51.674;7.824;2023-05-10T12:41:46;17.35;;;12.85;;
48871;SDS011;36154;51.674;7.824;2023-05-10T12:44:12;18.02;;;15.57;;
48871;SDS011;36154;51.674;7.824;2023-05-10T12:46:37;20.15;;;14.57;;
48871;SDS011;36154;51.674;7.824;2023-05-10T12:49:02;23.48;;;16.83;;
48871;SDS011;36154;51.674;7.824;2023-05-10T12:51:28;19.73;;;16.38;;
48871;SDS011;36154;51.674;7.824;2023-05-10T12:53:53;23.52;;;16.90;;
48871;SDS011;36154;51.674;7.824;2023-05-10T12:56:19;21.48;;;16.65;;
48871;SDS011;36154;51.674;7.824;2023-05-10T12:58:45;19.42;;;17.10;;
48871;SDS011;36154;51.674;7.824;2023-05-10T13:01:13;22.13;;;18.42;;
48871;SDS011;36154;51.674;7.824;2023-05-10T13:03:39;22.33;;;17.70;;
48871;SDS011;36154;51.674;7.824;2023-05-10T13:06:04;20.38;;;17.67;;
48871;SDS011;36154;51.674;7.824;2023-05-10T13:08:31;19.83;;;17.73;;
48871;SDS011;36154;51.674;7.824;2023-05-10T13:10:58;21.75;;;17.60;;
48871;SDS011;36154;51.674;7.824;2023-05-10T13:13:24;17.50;;;15.52;;
48871;SDS011;36154;51.674;7.824;2023-05-10T13:15:51;23.55;;;19.25;;
48871;SDS011;36154;51.674;7.824;2023-05-10T13:18:17;30.45;;;22.90;;
48871;SDS011;36154;51.674;7.824;2023-05-10T13:20:42;29.50;;;22.60;;
48871;SDS011;36154;51.674;7.824;2023-05-10T13:23:09;26.00;;;21.70;;
48871;SDS011;36154;51.674;7.824;2023-05-10T13:25:35;23.65;;;20.25;;
48871;SDS011;36154;51.674;7.824;2023-05-10T13:28:00;27.58;;;20.80;;
48871;SDS011;36154;51.674;7.824;2023-05-10T13:30:26;21.88;;;17.98;;
48871;SDS011;36154;51.674;7.824;2023-05-10T13:32:51;21.70;;;15.93;;
48871;SDS011;36154;51.674;7.824;2023-05-10T13:35:16;21.33;;;16.20;;
48871;SDS011;36154;51.674;7.824;2023-05-10T13:37:41;17.25;;;15.15;;
48871;SDS011;36154;51.674;7.824;2023-05-10T13:40:07;18.60;;;15.32;;
48871;SDS011;36154;51.674;7.824;2023-05-10T13:42:32;18.30;;;14.02;;
48871;SDS011;36154;51.674;7.824;2023-05-10T13:44:58;15.43;;;12.82;;
48871;SDS011;36154;51.674;7.824;2023-05-10T13:47:24;14.25;;;11.52;;
48871;SDS011;36154;51.674;7.824;2023-05-10T13:49:49;11.85;;;10.65;;
48871;SDS011;36154;51.674;7.824;2023-05-10T13:52:15;13.38;;;9.52;;
48871;SDS011;36154;51.674;7.824;2023-05-10T13:54:40;10.70;;;9.32;;
48871;SDS011;36154;51.674;7.824;2023-05-10T13:57:05;9.60;;;8.70;;
48871;SDS011;36154;51.674;7.824;2023-05-10T13:59:31;10.60;;;9.55;;
48871;SDS011;36154;51.674;7.824;2023-05-10T14:01:57;9.77;;;8.88;;
48871;SDS011;36154;51.674;7.824;2023-05-10T14:04:23;10.18;;;9.27;;
48871;SDS011;36154;51.674;7.824;2023-05-10T14:06:49;9.00;;;8.25;;
48871;SDS011;36154;51.674;7.824;2023-05-10T14:09:14;9.13;;;8.25;;
48871;SDS011;36154;51.674;7.824;2023-05-10T14:11:39;9.52;;;8.60;;
48871;SDS011;36154;51.674;7.824;2023-05-10T14:14:08;9.10;;;8.32;;
48871;SDS011;36154;51.674;7.824;2023-05-10T14:16:36;8.00;;;7.20;;
48871;SDS011;36154;51.674;7.824;2023-05-10T14:19:01;8.25;;;7.47;;
48871;SDS011;36154;51.674;7.824;2023-05-10T14:21:27;8.50;;;7.43;;
48871;SDS011;36154;51.674;7.824;2023-05-10T14:23:54;8.48;;;7.63;;
48871;SDS011;36154;51.674;7.824;2023-05-10T14:26:20;7.68;;;7.00;;
48871;SDS011;36154;51.674;7.824;2023-05-10T14:28:46;7.60;;;7.00;;
48871;SDS011;36154;51.674;7.824;2023-05-10T14:31:11;8.15;;;6.80;;
48871;SDS011;36154;51.674;7.824;2023-05-10T14:33:37;8.20;;;6.88;;
48871;SDS011;36154;51.674;7.824;2023-05-10T14:36:02;7.18;;;6.32;;
48871;SDS011;36154;51.674;7.824;2023-05-10T14:38:28;8.43;;;7.47;;
48871;SDS011;36154;51.674;7.824;2023-05-10T14:40:54;7.43;;;6.72;;
48871;SDS011;36154;51.674;7.824;2023-05-10T14:43:19;6.97;;;6.38;;
48871;SDS011;36154;51.674;7.824;2023-05-10T14:45:45;7.15;;;6.57;;
48871;SDS011;36154;51.674;7.824;2023-05-10T14:48:10;7.28;;;6.57;;
48871;SDS011;36154;51.674;7.824;2023-05-10T14:50:40;7.35;;;6.70;;
48871;SDS011;36154;51.674;7.824;2023-05-10T14:53:05;7.15;;;6.13;;
48871;SDS011;36154;51.674;7.824;2023-05-10T14:55:30;6.95;;;6.35;;
48871;SDS011;36154;51.674;7.824;2023-05-10T14:57:56;6.97;;;6.38;;
48871;SDS011;36154;51.674;7.824;2023-05-10T15:00:21;6.97;;;6.38;;
48871;SDS011;36154;51.674;7.824;2023-05-10T15:02:47;8.57;;;6.80;;
48871;SDS011;36154;51.674;7.824;2023-05-10T15:05:13;6.72;;;6.07;;
48871;SDS011;36154;51.674;7.824;2023-05-10T15:07:39;7.15;;;6.55;;
48871;SDS011;36154;51.674;7.824;2023-05-10T15:10:05;6.28;;;5.72;;
48871;SDS011;36154;51.674;7.824;2023-05-10T15:12:30;7.57;;;6.35;;
48871;SDS011;36154;51.674;7.824;2023-05-10T15:14:56;11.68;;;7.20;;
48871;SDS011;36154;51.674;7.824;2023-05-10T15:17:21;11.55;;;7.63;;
48871;SDS011;36154;51.674;7.824;2023-05-10T15:19:46;12.07;;;6.70;;
48871;SDS011;36154;51.674;7.824;2023-05-10T15:22:12;13.48;;;7.40;;
48871;SDS011;36154;51.674;7.824;2023-05-10T15:24:37;14.30;;;7.47;;
48871;SDS011;36154;51.674;7.824;2023-05-10T15:27:02;15.85;;;7.03;;